Giltner, Nebraska
Current Conditions -  °F | °C
As of 8:35 PM on Tuesday 21 Oct 2014 (Local Time) from KAUH Reporting Station
Clear Clear  
Wind Chill: 61°   Ceiling: Unl
Heat Index: 61°   Visibility: 7mi
Dew Point: 41°   Wind: 9mph
Humidity: 47%   Direction: 140°SE
Pressure: 29.99"   Gusts: NA
Location:  40.77°N, 98.15°W
Report Text: KAUH 220135Z AUTO 14008KT 7SM CLR 16/05 A2999 RMK AO2 T01610048
Loading
Personal Weather Stations






























Interactive Weather Map
Tropical Storm Tracking
New forecast layout! Learn more

10-Day Weather Forecast

Advertisements
Track Severe Weather on mobile